Sligo, Missouri
Current Conditions -  °F | °C
As of 4:58 AM on Friday 28 Nov 2014 (Local Time) from KTBN Reporting Station
Clear Clear  
Wind Chill: 20°   Ceiling: Unl
Heat Index: 29°   Visibility: 10mi
Dew Point: 25°   Wind: 12mph
Humidity: 82%   Direction: 150°SSE
Pressure: 30.2"   Gusts: NA
Location:  37.5023°N, 91.4546°W
Report Text: KTBN 281058Z AUTO 15010KT 10SM CLR M01/M04 A3020 RMK AO2 SLP239 T10141041 $
Loading
Personal Weather Stations






























Interactive Weather Map New forecast layout! Learn more

10-Day Weather Forecast

Advertisements
Track Severe Weather on mobile